Time;durP1;ratioP1;P1;durP2;ratioP2;P2;SDS_P1;SDS_P2;PMS_P1;PMS_P2;Temp;Humidity;BMP_temperature;BMP_pressure;BME280_temperature;BME280_humidity;BME280_pressure;Samples;Min_cycle;Max_cycle;Signal;HPM_P1;HPM_P2
2021/07/04 00:00:43;;;;;;;7.97;7.28;;;21.40;99.90;;;;;;5094036;28;20046;-93
2021/07/04 00:03:09;;;;;;;7.70;7.03;;;21.40;99.90;;;;;;5076347;28;20040;-91
2021/07/04 00:05:46;;;;;;;8.18;7.18;;;21.40;99.90;;;;;;5077442;28;20135;-91
2021/07/04 00:08:16;;;;;;;8.32;7.53;;;21.40;99.90;;;;;;5076461;28;20084;-92
2021/07/04 00:10:47;;;;;;;8.65;7.20;;;21.30;99.90;;;;;;5076524;28;20473;-91
2021/07/04 00:13:13;;;;;;;8.38;7.10;;;21.30;99.90;;;;;;5080489;28;20079;-92
2021/07/04 00:15:41;;;;;;;7.18;6.47;;;21.30;99.90;;;;;;5077451;28;20126;-92
2021/07/04 00:18:21;;;;;;;7.63;6.93;;;21.20;99.90;;;;;;5101721;28;20040;-91
2021/07/04 00:20:48;;;;;;;7.13;6.53;;;21.30;99.90;;;;;;5093700;28;20028;-91
2021/07/04 00:23:14;;;;;;;7.65;6.68;;;21.20;99.90;;;;;;5084096;28;20043;-92
2021/07/04 00:25:41;;;;;;;9.45;6.57;;;21.20;99.90;;;;;;5086662;28;20063;-91
2021/07/04 00:28:07;;;;;;;8.02;7.32;;;21.20;99.90;;;;;;5090400;28;20032;-91
2021/07/04 00:30:33;;;;;;;7.55;6.85;;;21.20;99.90;;;;;;5100983;28;20038;-91
2021/07/04 00:32:59;;;;;;;7.38;6.72;;;21.10;99.90;;;;;;5086466;28;20109;-91
2021/07/04 00:35:26;;;;;;;7.65;6.93;;;21.10;99.90;;;;;;5102288;28;20492;-90
2021/07/04 00:37:53;;;;;;;8.00;7.25;;;21.00;99.90;;;;;;5095028;28;20084;-90
2021/07/04 00:40:20;;;;;;;6.93;6.32;;;21.00;99.90;;;;;;5096222;28;20040;-91
2021/07/04 00:42:46;;;;;;;7.32;6.63;;;21.00;99.90;;;;;;5098231;28;20040;-91
2021/07/04 00:45:30;;;;;;;7.60;6.93;;;20.90;99.90;;;;;;5111303;28;20024;-91
2021/07/04 00:47:56;;;;;;;7.20;6.50;;;20.90;99.90;;;;;;5104942;28;20029;-90
2021/07/04 00:50:25;;;;;;;7.75;7.00;;;20.90;99.90;;;;;;5086715;28;20032;-90
2021/07/04 00:52:53;;;;;;;6.75;6.15;;;20.90;99.90;;;;;;5085973;28;20059;-90
2021/07/04 00:55:20;;;;;;;6.60;5.93;;;20.80;99.90;;;;;;5084787;28;20032;-90
2021/07/04 00:57:46;;;;;;;7.22;6.53;;;20.80;99.90;;;;;;5084354;28;20036;-90
2021/07/04 01:00:18;;;;;;;7.30;6.43;;;20.80;99.90;;;;;;5084613;28;20028;-91
2021/07/04 01:02:44;;;;;;;7.00;6.40;;;20.80;99.90;;;;;;5083958;28;20036;-90
2021/07/04 01:05:15;;;;;;;6.93;6.20;;;20.80;99.90;;;;;;5082641;28;20114;-90
2021/07/04 01:07:42;;;;;;;8.77;6.82;;;20.80;99.90;;;;;;5086706;28;20040;-90
2021/07/04 01:10:11;;;;;;;7.95;6.43;;;20.80;99.90;;;;;;5102846;28;20031;-90
2021/07/04 01:12:38;;;;;;;11.48;7.40;;;20.80;99.90;;;;;;5083963;28;20117;-91
2021/07/04 01:15:05;;;;;;;8.48;7.13;;;20.80;99.90;;;;;;5082445;28;20081;-90
2021/07/04 01:17:33;;;;;;;6.60;6.00;;;20.80;99.90;;;;;;5080991;28;20047;-90
2021/07/04 01:20:20;;;;;;;7.30;6.60;;;20.80;99.90;;;;;;5093437;28;20020;-90
2021/07/04 01:22:54;;;;;;;7.10;6.05;;;20.80;99.90;;;;;;5096447;28;20473;-90
2021/07/04 01:25:20;;;;;;;7.03;6.43;;;20.70;99.90;;;;;;5096798;28;20392;-91
2021/07/04 01:27:46;;;;;;;6.70;6.10;;;20.80;99.90;;;;;;5095594;28;20050;-90
2021/07/04 01:30:12;;;;;;;8.18;6.45;;;20.70;99.90;;;;;;5095517;28;20111;-91
2021/07/04 01:32:38;;;;;;;6.30;5.80;;;20.70;99.90;;;;;;5078068;28;20087;-91
2021/07/04 01:35:04;;;;;;;6.45;5.95;;;20.70;99.90;;;;;;5095542;28;20067;-90
2021/07/04 01:37:30;;;;;;;7.38;6.55;;;20.70;99.90;;;;;;5078775;28;20036;-90
2021/07/04 01:39:56;;;;;;;6.93;6.25;;;20.70;99.90;;;;;;5096004;28;20032;-91
2021/07/04 01:42:21;;;;;;;7.30;6.60;;;20.70;99.90;;;;;;5095569;28;20064;-91
2021/07/04 01:44:47;;;;;;;7.60;6.90;;;20.70;99.90;;;;;;5095793;28;20031;-91
2021/07/04 01:47:13;;;;;;;7.32;6.50;;;20.70;99.90;;;;;;5095219;28;20531;-91
2021/07/04 01:49:39;;;;;;;7.85;6.05;;;20.70;99.90;;;;;;5078271;28;20028;-91
2021/07/04 01:52:05;;;;;;;7.55;6.75;;;20.70;99.90;;;;;;5095143;28;20404;-91
2021/07/04 01:54:32;;;;;;;6.60;6.00;;;20.60;99.90;;;;;;5096382;28;20405;-91
2021/07/04 01:56:58;;;;;;;6.82;6.20;;;20.70;99.90;;;;;;5083339;28;20032;-91
2021/07/04 01:59:24;;;;;;;6.60;6.00;;;20.70;99.90;;;;;;5081192;28;20496;-91
2021/07/04 02:01:49;;;;;;;6.15;5.65;;;20.70;99.90;;;;;;5094127;28;20481;-91
2021/07/04 02:04:15;;;;;;;6.82;6.22;;;20.70;99.90;;;;;;5095288;28;20445;-91
2021/07/04 02:06:41;;;;;;;8.10;6.88;;;20.70;99.90;;;;;;5095917;28;20036;-90
2021/07/04 02:09:07;;;;;;;8.50;6.88;;;20.70;99.90;;;;;;5078115;28;20055;-91
2021/07/04 02:11:33;;;;;;;8.25;7.30;;;20.70;99.90;;;;;;5095322;28;20071;-90
2021/07/04 02:13:58;;;;;;;9.70;7.63;;;20.70;99.90;;;;;;5094507;28;20044;-91
2021/07/04 02:16:24;;;;;;;7.43;6.57;;;20.60;99.90;;;;;;5094607;28;20028;-91
2021/07/04 02:18:51;;;;;;;7.93;7.22;;;20.60;99.90;;;;;;5096115;28;20111;-91
2021/07/04 02:21:17;;;;;;;7.55;6.85;;;20.60;99.90;;;;;;5095788;28;20032;-90
2021/07/04 02:23:43;;;;;;;7.80;7.00;;;20.60;99.90;;;;;;5077493;28;20028;-91
2021/07/04 02:26:09;;;;;;;9.32;7.43;;;20.60;99.90;;;;;;5094138;28;20043;-91
2021/07/04 02:28:35;;;;;;;7.40;6.70;;;20.60;99.90;;;;;;5094377;28;20043;-91
2021/07/04 02:31:00;;;;;;;7.38;6.68;;;20.60;99.90;;;;;;5094130;28;20089;-91
2021/07/04 02:33:27;;;;;;;7.20;6.50;;;20.70;99.90;;;;;;5094241;28;20051;-92
2021/07/04 02:35:58;;;;;;;7.68;6.65;;;20.70;99.90;;;;;;5077096;28;20032;-90
2021/07/04 02:38:25;;;;;;;6.97;6.22;;;20.80;99.90;;;;;;5094207;28;20040;-91
2021/07/04 02:40:52;;;;;;;7.18;6.30;;;20.80;99.90;;;;;;5076908;28;20032;-90
2021/07/04 02:43:21;;;;;;;8.35;5.85;;;20.80;99.90;;;;;;5095623;28;20119;-91
2021/07/04 02:45:47;;;;;;;7.68;6.97;;;20.80;99.90;;;;;;5077099;28;20028;-91
2021/07/04 02:48:13;;;;;;;10.10;6.72;;;20.90;99.90;;;;;;5077024;28;20044;-91
2021/07/04 02:50:40;;;;;;;7.55;6.85;;;20.90;99.90;;;;;;5093960;28;20035;-91
2021/07/04 02:53:06;;;;;;;6.85;6.13;;;20.90;99.90;;;;;;5077309;28;20048;-92
2021/07/04 02:55:32;;;;;;;7.80;7.10;;;21.00;99.90;;;;;;5095392;28;20039;-90
2021/07/04 02:57:58;;;;;;;7.30;6.47;;;21.10;99.90;;;;;;5076627;28;20104;-91
2021/07/04 03:00:26;;;;;;;6.85;5.97;;;21.10;99.90;;;;;;5093543;28;20028;-90
2021/07/04 03:02:52;;;;;;;9.40;6.20;;;21.20;99.90;;;;;;5076787;28;20040;-92
2021/07/04 03:05:18;;;;;;;6.90;6.30;;;21.20;99.90;;;;;;5076860;28;20024;-93
2021/07/04 03:07:44;;;;;;;6.72;6.13;;;21.20;99.90;;;;;;5076943;28;20068;-91
2021/07/04 03:10:16;;;;;;;7.10;6.32;;;21.30;99.90;;;;;;5076827;28;20085;-91
2021/07/04 03:12:43;;;;;;;7.55;6.20;;;21.30;99.90;;;;;;5075675;28;20117;-91
2021/07/04 03:15:11;;;;;;;7.15;6.45;;;21.40;99.90;;;;;;5076706;28;20044;-91
2021/07/04 03:17:37;;;;;;;7.57;6.88;;;21.60;99.90;;;;;;5076539;28;20064;-91
2021/07/04 03:20:06;;;;;;;6.97;6.38;;;21.70;99.90;;;;;;5076784;28;20055;-92
2021/07/04 03:22:31;;;;;;;7.68;6.97;;;21.80;99.90;;;;;;5079238;28;20566;-91
2021/07/04 03:24:57;;;;;;;7.00;6.40;;;21.90;99.90;;;;;;5093301;28;20032;-92
2021/07/04 03:27:23;;;;;;;7.40;6.70;;;22.00;99.90;;;;;;5093816;28;20040;-91
2021/07/04 03:29:49;;;;;;;7.55;6.85;;;22.10;99.90;;;;;;5076402;28;20396;-90
2021/07/04 03:32:15;;;;;;;7.80;6.97;;;22.30;99.90;;;;;;5093269;28;20032;-91
2021/07/04 03:34:41;;;;;;;8.13;7.35;;;22.40;99.90;;;;;;5094189;28;20566;-91
2021/07/04 03:37:07;;;;;;;8.25;7.22;;;22.40;99.90;;;;;;5076390;28;20032;-91
2021/07/04 03:39:33;;;;;;;7.80;7.10;;;22.50;99.90;;;;;;5092975;28;20042;-91
2021/07/04 03:41:59;;;;;;;8.27;7.05;;;22.50;99.90;;;;;;5076251;28;20418;-92
2021/07/04 03:44:24;;;;;;;7.20;6.50;;;22.50;99.90;;;;;;5092894;28;20040;-92
2021/07/04 03:46:50;;;;;;;7.80;7.10;;;22.60;99.90;;;;;;5092631;28;20040;-91
2021/07/04 03:49:16;;;;;;;7.75;6.25;;;22.60;99.90;;;;;;5092822;28;20066;-92
2021/07/04 03:51:41;;;;;;;8.05;7.25;;;22.80;99.90;;;;;;5093003;28;20055;-92
2021/07/04 03:54:07;;;;;;;9.15;7.10;;;22.90;99.90;;;;;;5076167;28;20044;-91
2021/07/04 03:56:33;;;;;;;7.72;6.85;;;23.10;99.90;;;;;;5092592;28;20039;-91
2021/07/04 03:58:59;;;;;;;8.55;6.60;;;23.40;99.90;;;;;;5092788;28;20047;-91
2021/07/04 04:01:25;;;;;;;9.38;7.15;;;23.70;99.90;;;;;;5076051;28;20051;-92
2021/07/04 04:03:51;;;;;;;7.55;6.75;;;23.90;99.90;;;;;;5093338;28;20067;-92
2021/07/04 04:06:17;;;;;;;8.13;7.43;;;24.20;99.90;;;;;;5076028;28;20055;-92
2021/07/04 04:08:45;;;;;;;8.05;7.35;;;24.30;99.90;;;;;;5074909;28;20392;-91
2021/07/04 04:11:12;;;;;;;8.05;7.25;;;24.40;99.80;;;;;;5075673;28;20036;-91
2021/07/04 04:13:39;;;;;;;8.02;7.22;;;24.50;99.50;;;;;;5093336;28;20036;-91
2021/07/04 04:16:06;;;;;;;7.93;7.15;;;24.60;99.30;;;;;;5077349;28;20025;-92
2021/07/04 04:18:36;;;;;;;7.60;6.72;;;24.60;98.80;;;;;;5095083;28;20126;-92
2021/07/04 04:21:06;;;;;;;7.00;6.40;;;24.70;98.40;;;;;;5078179;28;20078;-90
2021/07/04 04:23:33;;;;;;;7.40;6.70;;;24.70;98.20;;;;;;5079649;28;20036;-91
2021/07/04 04:25:59;;;;;;;7.53;6.82;;;24.70;98.00;;;;;;5081170;28;20481;-92
2021/07/04 04:28:24;;;;;;;7.40;6.70;;;24.70;98.00;;;;;;5097551;28;20051;-91
2021/07/04 04:30:51;;;;;;;9.00;7.80;;;24.80;97.90;;;;;;5096979;28;20032;-91
2021/07/04 04:33:16;;;;;;;7.50;6.72;;;24.90;97.60;;;;;;5080380;28;20044;-91
2021/07/04 04:35:42;;;;;;;8.77;7.35;;;24.90;97.50;;;;;;5097195;28;20096;-92
2021/07/04 04:38:08;;;;;;;8.75;7.82;;;25.00;97.30;;;;;;5097359;28;20113;-91
2021/07/04 04:40:34;;;;;;;8.05;7.28;;;25.00;97.20;;;;;;5097369;28;20526;-90
2021/07/04 04:43:00;;;;;;;7.97;7.13;;;25.10;96.80;;;;;;5096948;28;20051;-92
2021/07/04 04:45:26;;;;;;;8.18;7.38;;;25.20;96.60;;;;;;5079998;28;20154;-91
2021/07/04 04:47:52;;;;;;;8.52;7.82;;;25.30;96.30;;;;;;5079936;28;20071;-91
2021/07/04 04:50:17;;;;;;;8.88;8.07;;;25.40;96.10;;;;;;5097038;28;20036;-91
2021/07/04 04:52:43;;;;;;;7.70;7.03;;;25.50;95.90;;;;;;5096985;28;20048;-91
2021/07/04 04:55:10;;;;;;;8.57;7.70;;;25.50;95.50;;;;;;5097207;28;20439;-91
2021/07/04 04:57:36;;;;;;;7.45;6.85;;;25.60;95.00;;;;;;5080431;28;20112;-92
2021/07/04 05:00:06;;;;;;;8.07;7.28;;;25.70;94.90;;;;;;5097276;28;20119;-91
2021/07/04 05:02:31;;;;;;;7.80;7.10;;;25.90;94.70;;;;;;5080855;28;20055;-90
2021/07/04 05:04:57;;;;;;;7.07;6.47;;;26.00;93.50;;;;;;5080619;28;20488;-91
2021/07/04 05:07:23;;;;;;;8.38;6.38;;;26.20;92.80;;;;;;5096965;28;20040;-92
2021/07/04 05:09:48;;;;;;;7.57;6.75;;;26.50;92.20;;;;;;5097041;28;20032;-90
2021/07/04 05:12:14;;;;;;;7.63;6.93;;;26.70;91.10;;;;;;5096433;28;20040;-91
2021/07/04 05:14:40;;;;;;;9.27;6.95;;;26.80;90.20;;;;;;5096238;28;20032;-91
2021/07/04 05:17:05;;;;;;;7.72;7.03;;;26.90;90.00;;;;;;5097048;28;20044;-91
2021/07/04 05:19:31;;;;;;;9.07;6.72;;;27.20;90.20;;;;;;5096300;28;20027;-91
2021/07/04 05:21:57;;;;;;;7.10;6.40;;;27.50;90.40;;;;;;5081850;28;20036;-91
2021/07/04 05:24:22;;;;;;;7.03;6.43;;;27.90;89.70;;;;;;5096073;28;20035;-91
2021/07/04 05:26:48;;;;;;;6.68;6.05;;;28.10;87.70;;;;;;5095723;28;20032;-92
2021/07/04 05:29:14;;;;;;;6.40;5.80;;;28.40;87.10;;;;;;5098253;28;20032;-92
2021/07/04 05:31:40;;;;;;;7.85;5.90;;;28.80;86.10;;;;;;5097665;28;20430;-92
2021/07/04 05:34:05;;;;;;;8.60;4.90;;;29.10;84.60;;;;;;5096994;28;20040;-92
2021/07/04 05:36:32;;;;;;;6.03;5.43;;;29.50;82.30;;;;;;5096963;28;20024;-92
2021/07/04 05:38:58;;;;;;;5.70;5.20;;;29.90;81.50;;;;;;5082502;28;20035;-92
2021/07/04 05:41:24;;;;;;;6.03;4.93;;;30.30;80.40;;;;;;5097059;28;20456;-92
2021/07/04 05:43:50;;;;;;;6.10;5.07;;;30.60;78.10;;;;;;5082461;28;20074;-92
2021/07/04 05:46:16;;;;;;;5.50;5.00;;;30.90;76.90;;;;;;5079889;28;20085;-93
2021/07/04 05:48:43;;;;;;;5.03;4.63;;;31.20;75.90;;;;;;5079675;28;20036;-92
2021/07/04 05:51:10;;;;;;;5.47;4.60;;;31.60;74.70;;;;;;5079402;28;20511;-92
2021/07/04 05:53:36;;;;;;;5.93;4.47;;;32.00;73.20;;;;;;5082250;28;20040;-93
2021/07/04 05:56:02;;;;;;;4.97;4.20;;;32.30;71.10;;;;;;5095687;23;20048;-90
2021/07/04 05:58:28;;;;;;;4.75;4.35;;;32.60;70.20;;;;;;5095686;23;20084;-93
2021/07/04 06:00:53;;;;;;;4.20;3.90;;;32.90;69.30;;;;;;5075491;28;20028;-92
2021/07/04 06:03:19;;;;;;;4.35;3.97;;;33.30;68.30;;;;;;5075183;28;20047;-92
2021/07/04 06:05:45;;;;;;;4.78;4.32;;;33.60;67.30;;;;;;5075710;28;20028;-93
2021/07/04 06:08:11;;;;;;;4.68;4.28;;;33.80;65.50;;;;;;5076114;28;20108;-93
2021/07/04 06:10:37;;;;;;;5.25;4.80;;;33.80;64.90;;;;;;5076189;28;20032;-91
2021/07/04 06:13:06;;;;;;;5.40;4.15;;;33.70;64.20;;;;;;5076630;28;20157;-93
2021/07/04 06:15:31;;;;;;;4.85;4.43;;;33.60;63.80;;;;;;5074747;28;20039;-92
2021/07/04 06:17:57;;;;;;;5.13;4.35;;;33.70;63.70;;;;;;5076312;28;20037;-92
2021/07/04 06:20:26;;;;;;;4.40;4.00;;;33.70;63.20;;;;;;5075454;28;20401;-92
2021/07/04 06:22:54;;;;;;;5.15;4.70;;;33.50;62.80;;;;;;5077510;28;20086;-93
2021/07/04 06:25:21;;;;;;;6.70;4.28;;;33.40;62.70;;;;;;5080608;28;20036;-92
2021/07/04 06:27:46;;;;;;;4.60;4.20;;;33.30;62.90;;;;;;5077658;28;20424;-91
2021/07/04 06:30:12;;;;;;;5.30;4.80;;;33.40;63.10;;;;;;5074981;28;20035;-93
2021/07/04 06:32:39;;;;;;;5.20;4.15;;;33.60;63.30;;;;;;5078891;28;20044;-93
2021/07/04 06:35:07;;;;;;;5.30;4.80;;;34.20;63.00;;;;;;5079519;28;20033;-93
2021/07/04 06:37:33;;;;;;;5.35;4.85;;;34.60;62.10;;;;;;5075108;28;20051;-92
2021/07/04 06:39:59;;;;;;;4.90;4.50;;;35.00;61.60;;;;;;5075065;28;20439;-93
2021/07/04 06:42:25;;;;;;;5.65;4.88;;;35.30;60.90;;;;;;5075804;28;20072;-93
2021/07/04 06:44:51;;;;;;;5.20;4.80;;;35.50;60.30;;;;;;5076870;28;20036;-93
2021/07/04 06:47:17;;;;;;;5.00;4.57;;;35.50;59.50;;;;;;5080619;28;20056;-93
2021/07/04 06:49:45;;;;;;;5.35;4.95;;;35.60;59.70;;;;;;5078208;28;20033;-94
2021/07/04 06:52:11;;;;;;;5.57;4.90;;;35.70;59.30;;;;;;5079473;28;20035;-94
2021/07/04 06:54:37;;;;;;;6.78;5.22;;;35.80;59.30;;;;;;5075025;28;20497;-92
2021/07/04 06:59:48;;;;;;;5.50;5.00;;;36.10;58.70;;;;;;5096944;28;20170;-93
2021/07/04 07:02:14;;;;;;;5.50;5.00;;;36.50;58.60;;;;;;5085136;28;20048;-92
2021/07/04 07:04:40;;;;;;;5.30;4.80;;;36.50;57.40;;;;;;5087893;28;20035;-93
2021/07/04 07:07:06;;;;;;;5.97;5.38;;;36.10;57.30;;;;;;5083556;28;20036;-93
2021/07/04 07:09:31;;;;;;;6.10;5.50;;;35.70;57.50;;;;;;5079131;28;20048;-92
2021/07/04 07:11:57;;;;;;;6.82;5.07;;;35.30;57.50;;;;;;5080522;28;20036;-92
2021/07/04 07:14:23;;;;;;;5.65;5.15;;;35.30;58.30;;;;;;5080259;28;20401;-92
2021/07/04 07:16:49;;;;;;;5.85;5.28;;;35.50;58.40;;;;;;5096573;28;20028;-94
2021/07/04 07:19:15;;;;;;;5.40;4.90;;;35.90;58.50;;;;;;5083563;28;20040;-93
2021/07/04 07:21:42;;;;;;;5.85;5.35;;;36.50;58.30;;;;;;5085449;28;20043;-93
2021/07/04 07:24:09;;;;;;;6.03;4.70;;;37.20;57.50;;;;;;5082742;28;20468;-93
2021/07/04 07:26:35;;;;;;;6.72;4.82;;;37.70;56.50;;;;;;5083072;28;20056;-93
2021/07/04 07:29:02;;;;;;;4.82;4.43;;;37.70;55.50;;;;;;5081322;28;20032;-93
2021/07/04 07:31:28;;;;;;;5.43;4.93;;;37.50;55.10;;;;;;5081136;28;20028;-92
2021/07/04 07:33:54;;;;;;;5.05;4.65;;;37.10;54.80;;;;;;5080850;28;20074;-93
2021/07/04 07:36:19;;;;;;;4.43;4.10;;;37.00;55.00;;;;;;5080875;28;20431;-92
2021/07/04 07:38:45;;;;;;;5.63;4.35;;;36.90;55.40;;;;;;5089433;28;20028;-92
2021/07/04 07:41:11;;;;;;;7.10;5.00;;;37.20;55.70;;;;;;5090948;28;20040;-92
2021/07/04 07:43:37;;;;;;;4.80;4.40;;;37.70;55.20;;;;;;5083082;28;20032;-93
2021/07/04 07:46:03;;;;;;;4.43;4.03;;;38.00;55.00;;;;;;5089645;28;20028;-92
2021/07/04 07:48:28;;;;;;;5.15;4.15;;;38.30;54.10;;;;;;5086950;28;20040;-92
2021/07/04 07:50:54;;;;;;;5.00;4.50;;;38.90;53.60;;;;;;5094913;28;20047;-93
2021/07/04 07:53:20;;;;;;;6.07;4.22;;;39.30;52.70;;;;;;5081013;28;20051;-93
2021/07/04 07:55:46;;;;;;;4.63;4.07;;;39.40;51.50;;;;;;5079091;28;20035;-92
2021/07/04 07:58:11;;;;;;;5.28;4.40;;;39.10;51.50;;;;;;5080442;28;20072;-94
2021/07/04 08:00:37;;;;;;;6.05;4.20;;;39.20;51.70;;;;;;5083198;28;20404;-93
2021/07/04 08:03:03;;;;;;;4.80;4.40;;;39.60;51.90;;;;;;5076845;28;20044;-93
2021/07/04 08:05:29;;;;;;;4.95;4.35;;;40.20;51.30;;;;;;5078382;28;20429;-92
2021/07/04 08:07:55;;;;;;;4.85;4.35;;;40.90;50.90;;;;;;5077424;28;20067;-91
2021/07/04 08:10:21;;;;;;;4.78;4.28;;;41.40;50.30;;;;;;5078652;28;20042;-93
2021/07/04 08:12:48;;;;;;;4.97;4.35;;;41.60;49.40;;;;;;5083442;28;20066;-92
2021/07/04 08:15:14;;;;;;;4.60;4.18;;;41.80;48.40;;;;;;5092160;28;20508;-92
2021/07/04 08:17:40;;;;;;;5.10;4.25;;;41.70;48.30;;;;;;5084638;28;20036;-93
2021/07/04 08:20:07;;;;;;;4.40;4.00;;;41.70;48.00;;;;;;5080934;28;20040;-93
2021/07/04 08:22:33;;;;;;;6.25;4.07;;;41.80;48.00;;;;;;5082746;28;20074;-93
2021/07/04 08:25:00;;;;;;;6.53;4.38;;;42.00;47.70;;;;;;5081110;28;20032;-94
2021/07/04 08:27:26;;;;;;;8.02;4.82;;;42.20;47.30;;;;;;5078237;28;20032;-93
2021/07/04 08:29:51;;;;;;;4.38;3.75;;;42.30;46.80;;;;;;5079757;28;20406;-93
2021/07/04 08:32:17;;;;;;;4.88;4.40;;;42.00;47.00;;;;;;5082965;28;20043;-91
2021/07/04 08:34:43;;;;;;;4.38;3.97;;;41.50;46.80;;;;;;5084251;28;20061;-94
2021/07/04 08:37:12;;;;;;;4.55;4.15;;;41.20;46.80;;;;;;5096670;28;20393;-92
2021/07/04 08:39:44;;;;;;;6.07;4.20;;;40.50;46.50;;;;;;5077969;28;20028;-93
2021/07/04 08:42:27;;;;;;;4.70;4.30;;;39.60;47.10;;;;;;5079529;28;20036;-93
2021/07/04 08:45:01;;;;;;;4.70;4.30;;;39.30;47.90;;;;;;5074877;28;20024;-93
2021/07/04 08:47:27;;;;;;;4.50;4.10;;;39.10;48.40;;;;;;5077353;28;20072;-93
2021/07/04 08:49:59;;;;;;;4.47;4.07;;;39.50;48.70;;;;;;5081209;28;20082;-93
2021/07/04 08:52:25;;;;;;;6.07;4.10;;;39.90;47.80;;;;;;5071938;28;20048;-93
2021/07/04 08:55:04;;;;;;;6.63;4.15;;;40.40;47.90;;;;;;5099557;28;20088;-93
2021/07/04 08:57:33;;;;;;;4.50;4.10;;;40.90;47.50;;;;;;5090489;28;20036;-92
2021/07/04 09:00:04;;;;;;;5.22;3.92;;;40.90;46.80;;;;;;5076018;28;20154;-92
2021/07/04 09:02:51;;;;;;;5.10;3.53;;;40.60;46.60;;;;;;5078179;28;20032;-93
2021/07/04 09:05:21;;;;;;;5.22;4.40;;;40.20;46.50;;;;;;5078588;28;20047;-92
2021/07/04 09:08:16;;;;;;;4.13;3.72;;;40.10;47.10;;;;;;5079430;28;20029;-93
2021/07/04 09:10:45;;;;;;;5.30;4.20;;;40.40;47.40;;;;;;5080117;28;20516;-93
2021/07/04 09:13:27;;;;;;;4.88;4.38;;;40.50;46.60;;;;;;5080830;28;20044;-92
2021/07/04 09:16:18;;;;;;;4.30;3.90;;;40.00;46.00;;;;;;5081818;28;20040;-92
2021/07/04 09:18:44;;;;;;;4.22;3.83;;;39.30;46.70;;;;;;5080333;28;20036;-93
2021/07/04 09:21:24;;;;;;;4.68;4.25;;;38.70;48.00;;;;;;5082431;28;20032;-93
2021/07/04 09:23:51;;;;;;;4.30;3.90;;;38.80;48.70;;;;;;5080160;28;20044;-93
2021/07/04 09:26:43;;;;;;;5.45;4.30;;;39.30;49.00;;;;;;5093470;28;20040;-90
2021/07/04 09:29:11;;;;;;;4.53;4.13;;;40.20;48.20;;;;;;5087079;28;20068;-94
2021/07/04 09:31:40;;;;;;;5.00;3.80;;;40.70;47.70;;;;;;5093171;28;20036;-92
2021/07/04 09:34:08;;;;;;;4.25;3.85;;;41.00;46.90;;;;;;5097088;28;20048;-92
2021/07/04 09:36:36;;;;;;;4.80;3.92;;;41.40;46.70;;;;;;5091309;28;20044;-93
2021/07/04 09:39:22;;;;;;;3.88;3.58;;;42.00;46.20;;;;;;5081172;28;20530;-93
2021/07/04 09:42:10;;;;;;;4.20;3.80;;;42.30;45.10;;;;;;5085359;28;20040;-93
2021/07/04 09:44:40;;;;;;;4.32;3.92;;;42.70;45.50;;;;;;5079535;28;20035;-93
2021/07/04 09:47:20;;;;;;;4.53;4.13;;;43.10;45.50;;;;;;5082656;28;20132;-92
2021/07/04 09:49:48;;;;;;;5.07;4.38;;;43.40;44.70;;;;;;5080127;28;20028;-94
2021/07/04 09:52:20;;;;;;;6.28;4.18;;;43.20;44.50;;;;;;5082130;28;20044;-90
2021/07/04 09:55:19;;;;;;;4.38;3.97;;;42.80;44.30;;;;;;5084897;28;20028;-92
2021/07/04 09:57:59;;;;;;;4.30;3.90;;;42.70;44.80;;;;;;5093889;28;20051;-91
2021/07/04 10:00:30;;;;;;;4.80;3.72;;;43.00;43.80;;;;;;5079426;28;20041;-91
2021/07/04 10:03:23;;;;;;;3.80;3.50;;;43.30;44.30;;;;;;5085442;28;20052;-93
2021/07/04 10:05:55;;;;;;;4.72;3.72;;;43.90;42.10;;;;;;5095743;28;20174;-92
2021/07/04 10:08:38;;;;;;;3.63;3.33;;;44.30;43.10;;;;;;5095404;28;20056;-92
2021/07/04 10:11:12;;;;;;;7.53;3.78;;;44.60;42.60;;;;;;5084605;28;20039;-93
2021/07/04 10:13:40;;;;;;;5.75;4.35;;;44.60;42.70;;;;;;5078271;28;20412;-91
2021/07/04 10:16:08;;;;;;;7.78;4.20;;;44.70;43.00;;;;;;5082471;28;20028;-93
2021/07/04 10:18:36;;;;;;;4.55;3.90;;;44.80;42.60;;;;;;5080378;28;20456;-93
2021/07/04 10:21:02;;;;;;;3.95;3.55;;;45.10;42.50;;;;;;5078371;28;20032;-93
2021/07/04 10:23:28;;;;;;;4.10;3.70;;;45.50;42.30;;;;;;5080055;28;20040;-92
2021/07/04 10:26:07;;;;;;;9.07;3.88;;;46.00;42.10;;;;;;5095563;28;20040;-93
2021/07/04 10:28:41;;;;;;;4.35;3.80;;;46.30;41.50;;;;;;5079063;28;20484;-92
2021/07/04 10:31:19;;;;;;;4.22;3.92;;;46.70;41.00;;;;;;5078564;28;20040;-92
2021/07/04 10:34:02;;;;;;;3.88;3.50;;;46.70;40.50;;;;;;5097084;28;20047;-92
2021/07/04 10:36:28;;;;;;;4.13;3.83;;;46.40;41.00;;;;;;5078829;28;20039;-93
2021/07/04 10:38:57;;;;;;;3.75;3.42;;;46.20;41.00;;;;;;5077911;28;20036;-93
2021/07/04 10:41:26;;;;;;;4.65;4.00;;;46.30;41.00;;;;;;5078254;28;20035;-93
2021/07/04 10:43:57;;;;;;;4.95;3.38;;;46.60;41.30;;;;;;5079150;28;20488;-93
2021/07/04 10:46:49;;;;;;;4.30;3.90;;;46.60;40.50;;;;;;5084175;28;20032;-92
2021/07/04 10:49:31;;;;;;;5.17;3.77;;;45.70;40.30;;;;;;5088718;28;20048;-93
2021/07/04 10:52:02;;;;;;;4.03;3.50;;;44.80;41.40;;;;;;5097219;28;20047;-93
2021/07/04 10:54:49;;;;;;;4.82;3.67;;;44.10;41.90;;;;;;5078534;28;20044;-92
2021/07/04 10:57:21;;;;;;;4.35;3.95;;;43.80;42.50;;;;;;5078245;28;20032;-92
2021/07/04 10:59:55;;;;;;;4.32;3.92;;;43.80;42.50;;;;;;5077968;28;20067;-92
2021/07/04 11:02:46;;;;;;;5.38;4.00;;;43.50;42.30;;;;;;5077355;28;20378;-92
2021/07/04 11:05:34;;;;;;;4.22;3.83;;;42.80;42.50;;;;;;5077502;28;20042;-92
2021/07/04 11:08:04;;;;;;;4.60;4.13;;;42.60;42.90;;;;;;5079185;28;20510;-93
2021/07/04 11:10:32;;;;;;;6.60;3.78;;;42.60;43.20;;;;;;5079991;28;20042;-93
2021/07/04 11:13:07;;;;;;;3.63;3.33;;;42.90;43.20;;;;;;5080832;28;20097;-90
2021/07/04 11:15:34;;;;;;;4.10;3.70;;;43.40;42.80;;;;;;5086914;28;20063;-93
2021/07/04 11:18:07;;;;;;;4.07;3.67;;;43.50;41.70;;;;;;5081013;28;20054;-91
2021/07/04 11:20:40;;;;;;;3.80;3.50;;;43.30;41.60;;;;;;5077127;28;20059;-91
2021/07/04 11:23:06;;;;;;;;;;;42.90;42.00;;;;;;5083767;28;20028;-92
2021/07/04 11:25:49;;;;;;;5.18;3.38;;;42.30;42.30;;;;;;5087132;28;19946;-92
2021/07/04 11:28:18;;;;;;;3.63;3.33;;;42.50;42.90;;;;;;5085769;28;20028;-92
2021/07/04 11:30:48;;;;;;;4.07;3.63;;;42.90;42.80;;;;;;5078050;28;20032;-93
2021/07/04 11:33:20;;;;;;;4.80;3.60;;;43.50;42.50;;;;;;5078151;28;20106;-92
2021/07/04 11:35:46;;;;;;;;;;;44.00;42.90;;;;;;5079102;28;20028;-91
2021/07/04 11:38:20;;;;;;;3.80;3.47;;;44.20;41.30;;;;;;5095130;28;19957;-92
2021/07/04 11:40:47;;;;;;;3.80;3.40;;;44.20;41.80;;;;;;5083853;28;20032;-92
2021/07/04 11:43:24;;;;;;;3.90;3.45;;;44.40;41.70;;;;;;5078525;28;20495;-92
2021/07/04 11:45:54;;;;;;;3.50;3.20;;;44.40;41.20;;;;;;5077686;28;20056;-92
2021/07/04 11:48:21;;;;;;;4.13;2.75;;;44.30;41.40;;;;;;5077798;28;20032;-92
2021/07/04 11:50:51;;;;;;;3.30;3.00;;;44.20;41.50;;;;;;5077801;28;20044;-92
2021/07/04 11:53:17;;;;;;;4.15;2.90;;;44.20;41.70;;;;;;5078505;28;20500;-92
2021/07/04 11:56:03;;;;;;;3.92;3.38;;;44.20;41.70;;;;;;5076647;28;20028;-92
2021/07/04 11:58:30;;;;;;;3.55;3.25;;;44.20;40.80;;;;;;5077288;28;20072;-91
2021/07/04 12:00:58;;;;;;;3.67;3.28;;;43.90;41.50;;;;;;5086961;28;20036;-91
2021/07/04 12:03:26;;;;;;;3.50;3.20;;;43.60;41.60;;;;;;5093672;28;20032;-91
2021/07/04 12:06:03;;;;;;;5.50;3.10;;;43.10;41.90;;;;;;5079485;28;20035;-92
2021/07/04 12:08:29;;;;;;;4.05;3.00;;;42.90;42.30;;;;;;5076587;28;20048;-92
2021/07/04 12:10:54;;;;;;;4.75;3.05;;;42.90;42.20;;;;;;5076121;28;20028;-92
2021/07/04 12:13:20;;;;;;;5.80;3.10;;;42.70;42.20;;;;;;5075818;28;20044;-92
2021/07/04 12:15:50;;;;;;;3.50;3.03;;;42.80;42.30;;;;;;5080142;28;20047;-91
2021/07/04 12:18:18;;;;;;;3.20;2.90;;;43.00;42.10;;;;;;5077685;28;20032;-92
2021/07/04 12:20:53;;;;;;;3.75;3.13;;;43.10;42.10;;;;;;5076868;28;20035;-92
2021/07/04 12:23:19;;;;;;;3.22;2.92;;;43.60;41.70;;;;;;5082728;28;20469;-92
2021/07/04 12:25:45;;;;;;;3.78;3.05;;;44.10;41.60;;;;;;5078618;28;20040;-93
2021/07/04 12:28:16;;;;;;;3.67;2.70;;;44.30;41.00;;;;;;5097015;28;20028;-91
2021/07/04 12:30:50;;;;;;;3.17;2.60;;;44.40;40.90;;;;;;5079773;28;20036;-92
2021/07/04 12:33:21;;;;;;;4.00;3.00;;;44.50;40.60;;;;;;5081687;28;20043;-91
2021/07/04 12:36:11;;;;;;;3.33;2.90;;;44.70;40.60;;;;;;5096041;28;20413;-93
2021/07/04 12:38:43;;;;;;;3.85;2.70;;;44.40;40.00;;;;;;5089440;28;20094;-93
2021/07/04 12:41:14;;;;;;;3.17;2.88;;;43.80;40.50;;;;;;5093417;28;20036;-92
2021/07/04 12:43:42;;;;;;;2.80;2.60;;;43.30;41.20;;;;;;5089859;28;20081;-92
2021/07/04 12:46:23;;;;;;;2.80;2.60;;;43.30;41.30;;;;;;5080235;28;20477;-92
2021/07/04 12:48:51;;;;;;;2.90;2.65;;;43.60;41.20;;;;;;5082510;28;20040;-92
2021/07/04 12:51:27;;;;;;;3.10;2.65;;;43.70;41.10;;;;;;5079859;28;20032;-91
2021/07/04 12:53:53;;;;;;;3.63;2.80;;;43.70;41.20;;;;;;5086412;28;20044;-92
2021/07/04 12:56:23;;;;;;;2.97;2.67;;;43.40;41.30;;;;;;5095882;28;20040;-93
2021/07/04 12:59:09;;;;;;;3.08;2.70;;;43.10;41.50;;;;;;5081328;28;20047;-92